Pittsboro, North Carolina
Current Conditions -  °F | °C
As of 1:35 PM on Thursday 27 Nov 2014 (Local Time) from KTTA Reporting Station
Broken Clouds Broken Clouds  
Wind Chill: 40°   Ceiling: 8000
Heat Index: 46°   Visibility: 10mi
Dew Point: 40°   Wind: 10mph
Humidity: 81%   Direction: 330°NNW
Pressure: 30.07"   Gusts: NA
Location:  35.72°N, 79.18°W
Report Text: KTTA 271835Z AUTO 33009KT 10SM SCT022 BKN080 08/04 A3007 RMK AO2 T00750044
Loading
Personal Weather Stations






























Interactive Weather Map New forecast layout! Learn more

10-Day Weather Forecast

Advertisements
Track Severe Weather on mobile